Redwood Trust Inc (RWT) Latest Bloomsberg Price


Mffais Ranking #2149 Overall / #39 Industry
Industry: Mortgage Finance

Number of Companies: 107 (Ranking #1562 Overall/#17 Industry)
Inflow: $ 8,205 (K) (Ranking #2070 Overall/#30 Industry)
Outflow: $ -35,518 (K)
Mffais Flow: $ -27,312 (K) (Ranking #2149 Overall/#39 Industry)


Receive a FREE weekly executive review of stocks moving into the top 10, taking the top industy spot or moving up within their industry. Sent directly to your Inbox every Saturday. Sign up today and get last week's review immediately sent to you.

We value and respect your privacy. Please read our Terms and Conditions which states our firm commitment to your privacy. Your email address will not be shared with a third party, nor will it be sold or used for purposes other than subscription for the weekly review.

Owner CPOR Shares Action Qty Chg Invested (K) Total Current Value (K)
Arlington Capital Management Inc 2016-09-30 75,881 New Holding 75,881 $ 1,096 $ 1,096
Secor Capital Advisors Lp 2016-09-30 71,400 New Holding 71,400 $ 1,031 $ 1,031
Thrivent Financial For Lutherans 2016-09-30 54,880 New Holding 54,880 $ 793 $ 793
Hilton Capital Management Llc 2016-09-30 825,430 Added More 52,748 $ 762 $ 11,927
Jane Street Group Llc 2016-09-30 42,301 New Holding 42,301 $ 611 $ 611
Tiaa Cref Trust Co Fsb Mo 2016-09-30 165,139 Added More 41,606 $ 601 $ 2,386
Van Eck Associates Corp 2016-09-30 166,728 Added More 30,881 $ 446 $ 2,409
Dynamic Capital Management Ltd 2016-09-30 22,646 New Holding 22,646 $ 327 $ 327
Invictus Rg 2016-09-30 17,830 New Holding 17,830 $ 257 $ 257
Nationwide Fund Advisors 2016-09-30 201,881 Added More 17,730 $ 256 $ 2,917
Weiss Asset Management Lp 2016-09-30 16,586 New Holding 16,586 $ 239 $ 239
Indexiq Advisors Llc 2016-09-30 75,685 Added More 14,770 $ 213 $ 1,093
Hightower Advisors Llc 2016-09-30 14,535 New Holding 14,535 $ 210 $ 210
Great Lakes Advisors Llc 2016-09-30 31,500 Added More 14,000 $ 202 $ 455
Campbell Co Investment Adviser Llc 2016-09-30 13,178 New Holding 13,178 $ 190 $ 190
Northern Trust Corp 2016-09-30 866,815 Added More 12,751 $ 184 $ 12,525
Global X Management Co Llc 2016-09-30 693,207 Added More 11,532 $ 166 $ 10,016
Kcg Holdings Inc 2016-09-30 10,117 New Holding 10,117 $ 146 $ 146
Independent Portfolio Consultants Inc 2016-09-30 31,475 Added More 7,865 $ 113 $ 454
Doheny Asset Management Ca 2016-09-30 138,617 Added More 3,000 $ 43 $ 2,003
Raymond James Associates 2016-09-30 25,782 Added More 2,865 $ 41 $ 372
Point72 Asia Hong Kong Ltd 2016-09-30 2,200 New Holding 2,200 $ 31 $ 31
Teachers Advisors Inc 2016-09-30 124,203 Added More 2,061 $ 29 $ 1,794
Dynamic Technology Lab Private Ltd 2016-09-30 12,608 Added More 1,709 $ 24 $ 182
First Republic Investment Management Inc 2016-09-30 15,542 Added More 1,665 $ 24 $ 224
Barrington Strategic Wealth Management Group Llc 2016-09-30 50,931 Added More 1,588 $ 22 $ 735
California State Teachers Retirement System 2016-09-30 161,462 Added More 1,500 $ 21 $ 2,333
Rhumbline Advisers 2016-09-30 104,373 Added More 1,475 $ 21 $ 1,508
Montag A Associates Inc 2016-09-30 61,750 Added More 1,250 $ 18 $ 892
North Star Investment Management Corp 2016-09-30 17,550 Added More 1,100 $ 15 $ 253
Aperio Group Llc 2016-09-30 18,525 Added More 977 $ 14 $ 267
Rbo Co Llc 2016-09-30 703,368 Added More 863 $ 12 $ 10,163
Msi Financial Services Inc 2016-09-30 630 Added More 624 $ 9 $ 9
Farmers Merchants Investments Inc 2016-09-30 177,224 Added More 612 $ 8 $ 2,560
Zurcher Kantonalbank Zurich Cantonalbank 2016-09-30 2,137 Added More 418 $ 6 $ 30
Penserra Capital Management Llc 2016-09-30 1,107 Added More 369 $ 5 $ 15
Ladenburg Thalmann Financial Services Inc 2016-09-30 3,016 Added More 246 $ 3 $ 43
American International Group Inc 2016-09-30 43,981 Added More 67 $ 0 $ 635
Sei Investments Co 2016-09-30 168 Added More 17 $ 0 $ 2
Wealthtrust-Arizona Llc 2016-09-30 102 Added More 2 $ 0 $ 1
Quadrant Capital Group Llc 2016-09-30 1,348 No Change 0 $ 0 $ 19
Kempen Capital Management N V 2016-09-30 741,484 No Change 0 $ 0 $ 10,714
Hillsdale Investment Management Inc 2016-09-30 3,400 No Change 0 $ 0 $ 49
American Assets Investment Management Llc 2016-09-30 20,440 No Change 0 $ 0 $ 295
Fifth Third Bancorp 2016-09-30 1,086 No Change 0 $ 0 $ 15
Central Trust Co 2016-09-30 920 No Change 0 $ 0 $ 13
Entrustpermal Management Llc 2016-09-30 173,200 No Change 0 $ 0 $ 2,502
Texan Capital Management 2016-09-30 27,500 No Change 0 $ 0 $ 397
Sandy Spring Bank 2016-09-30 103 No Change 0 $ 0 $ 1
Old Mutual Customised Solutions Proprietary Ltd 2016-09-30 6,200 No Change 0 $ 0 $ 89
State Of New Jersey Common Pension Fund D 2016-09-30 135,000 No Change 0 $ 0 $ 1,950
Mufg Americas Holdings Corp 2016-09-30 397 No Change 0 $ 0 $ 5
10-15 Associates Inc 2016-09-30 18,600 No Change 0 $ 0 $ 268
Deere Co 2016-09-30 16,398 No Change 0 $ 0 $ 236
Fort Washington Investment Advisors Inc Oh 2016-09-30 11,775 No Change 0 $ 0 $ 170
New York State Common Retirement Fund 2016-09-30 76,500 No Change 0 $ 0 $ 1,105
Tortoise Investment Management Llc 2016-09-30 200 No Change 0 $ 0 $ 2
Ifp Advisors Inc 2016-09-30 1,000 No Change 0 $ 0 $ 14
Creative Planning 2016-09-30 1,775 Sold Some -100 $ -1 $ 25
Sterling Capital Management Llc 2016-09-30 65,246 Sold Some -101 $ -1 $ 942
Quantbot Technologies Lp 2016-09-30 0 Sold All -123 $ -1 $ 0
Washington Trust Bank 2016-09-30 0 Sold All -126 $ -1 $ 0
Blackrock Inc 2016-09-30 21,608 Sold Some -134 $ -1 $ 312
Checchi Capital Advisers Llc 2016-09-30 0 Sold All -135 $ -1 $ 0
Pittenger Anderson Inc 2016-09-30 0 Sold All -375 $ -5 $ 0
Comerica Bank 2016-09-30 17,971 Sold Some -500 $ -7 $ 259
Pnc Financial Services Group Inc 2016-09-30 2,800 Sold Some -503 $ -7 $ 40
Springbok Capital Management Llc 2016-09-30 0 Sold All -600 $ -8 $ 0
Blackrock Investment Management Llc 2016-09-30 320,564 Sold Some -629 $ -9 $ 4,632
Parkside Financial Bank Trust 2016-09-30 1,054 Sold Some -782 $ -11 $ 15
Strs Ohio 2016-09-30 24,300 Sold Some -900 $ -13 $ 351
Benchmark Capital Advisors 2016-09-30 114,867 Sold Some -900 $ -13 $ 1,659
Capital Fund Management S A 2016-09-30 13,315 Sold Some -925 $ -13 $ 192
Perigon Wealth Management Llc 2016-09-30 0 Sold All -1,000 $ -14 $ 0
Emerald Acquisition Ltd 2016-09-30 7,257 Sold Some -1,057 $ -15 $ 104
Tower Research Capital Llc Trc 2016-09-30 263 Sold Some -1,509 $ -21 $ 3
Walleye Trading Llc 2016-09-30 0 Sold All -1,900 $ -27 $ 0
Cubist Systematic Strategies Llc 2016-09-30 7,853 Sold Some -2,392 $ -34 $ 113
Advisor Group Inc 2016-09-30 302 Sold Some -3,250 $ -46 $ 4
Baird Financial Group Inc 2016-09-30 12,325 Sold Some -3,650 $ -52 $ 178
Cutler Group Lp 2016-09-30 25,088 Sold Some -4,396 $ -63 $ 362
Pettyjohn Wood White Inc 2016-09-30 33,955 Sold Some -4,425 $ -63 $ 490
Pacad Investment Ltd 2016-09-30 100 Sold Some -4,710 $ -68 $ 1
Swiss National Bank 2016-09-30 126,100 Sold Some -5,100 $ -73 $ 1,822
Kbc Group Nv 2016-09-30 114,805 Sold Some -5,766 $ -83 $ 1,658
White Pine Investment Co 2016-09-30 345,180 Sold Some -6,480 $ -93 $ 4,987
Sg Americas Securities Llc 2016-09-30 9,393 Sold Some -6,811 $ -98 $ 135
Ironbridge Capital Management Lp 2016-09-30 351,844 Sold Some -7,268 $ -105 $ 5,084
Us Bancorp De 2016-09-30 133,031 Sold Some -8,500 $ -122 $ 1,922
Hollencrest Securities Llc 2016-09-30 0 Sold All -10,325 $ -149 $ 0
Parametric Portfolio Associates Llc 2016-09-30 289,036 Sold Some -10,626 $ -153 $ 4,176
Ellington Management Group Llc 2016-09-30 0 Sold All -10,700 $ -154 $ 0
Teacher Retirement System Of Texas 2016-09-30 0 Sold All -10,846 $ -156 $ 0
Quantitative Systematic Strategies Llc 2016-09-30 0 Sold All -11,975 $ -173 $ 0
Princeton Alpha Management Lp 2016-09-30 13,404 Sold Some -19,047 $ -275 $ 193
Fox Run Management L L C 2016-09-30 0 Sold All -20,700 $ -299 $ 0
Tudor Investment Corp Et Al 2016-09-30 23,563 Sold Some -22,235 $ -321 $ 340
Guggenheim Capital Llc 2016-09-30 72,190 Sold Some -24,001 $ -346 $ 1,043
Proshare Advisors Llc 2016-09-30 0 Sold All -29,189 $ -421 $ 0
Private Management Group Inc 2016-09-30 1,807,142 Sold Some -36,561 $ -528 $ 26,113
A R T Advisors Llc 2016-09-30 0 Sold All -45,260 $ -654 $ 0
Cipher Capital Lp 2016-09-30 40,865 Sold Some -55,158 $ -797 $ 590
Gsa Capital Partners Llp 2016-09-30 18,368 Sold Some -71,238 $ -1,029 $ 265
Seizert Capital Partners Llc 2016-09-30 2,383,311 Sold Some -73,503 $ -1,062 $ 34,438
Nwq Investment Management Company Llc 2016-09-30 443,047 Sold Some -124,016 $ -1,792 $ 6,402
Weitz Investment Management Inc 2016-09-30 6,037,413 Sold Some -682,649 $ -9,864 $ 87,240
Rs Investment Management Co Llc 2016-06-30 0 Sold All -1,177,070 $ -16,255 $ 0